SHT4A EGLL-EGAC
Flight info
| Callsign | SHT4A |
|---|---|
| Flight time | 0h 55m |
| Altitude | 32000 |
| Route | ULTIB T420 TNT UL28 RODOL UM65 TENSO L603 BELOX DCT REMSI DCT NINEB M148 MAGEE |
| Aircraft | A20N/M-SDE2E3FGHIRWXY/LB1 |
Departure
| Time | 2026-04-20 14:55 |
|---|---|
| Airport | London Heathrow Airport (EGLL) |
Arrival
| Time | 2026-04-20 15:51 |
|---|---|
| Airport | George Best Belfast City Airport (EGAC) |
| Time | Latitude | Longitude | Altitude | Speed | Heading |
|---|---|---|---|---|---|
| 2026-04-20 14:20 | 51.47316 | -0.48580 | 85 ft | 0 kts | 268° |
| 2026-04-20 14:46 | 51.47316 | -0.48562 | 84 ft | 4 kts | 264° |
| 2026-04-20 14:47 | 51.47321 | -0.48519 | 84 ft | 4 kts | 247° |
| 2026-04-20 14:47 | 51.47335 | -0.48484 | 88 ft | 4 kts | 210° |
| 2026-04-20 14:47 | 51.47348 | -0.48477 | 88 ft | 1 kts | 178° |
| 2026-04-20 14:50 | 51.47327 | -0.48476 | 88 ft | 6 kts | 178° |
| 2026-04-20 14:51 | 51.47271 | -0.48475 | 84 ft | 10 kts | 180° |
| 2026-04-20 14:51 | 51.47189 | -0.48474 | 84 ft | 13 kts | 179° |
| 2026-04-20 14:51 | 51.47087 | -0.48472 | 88 ft | 16 kts | 179° |
| 2026-04-20 14:51 | 51.46965 | -0.48469 | 86 ft | 19 kts | 180° |
| 2026-04-20 14:52 | 51.46824 | -0.48470 | 84 ft | 21 kts | 181° |
| 2026-04-20 14:52 | 51.46675 | -0.48468 | 86 ft | 16 kts | 179° |
| 2026-04-20 14:52 | 51.46629 | -0.48468 | 88 ft | 6 kts | 180° |
| 2026-04-20 14:52 | 51.46612 | -0.48468 | 89 ft | 0 kts | 180° |
| 2026-04-20 14:53 | 51.46601 | -0.48469 | 89 ft | 5 kts | 180° |
| 2026-04-20 14:54 | 51.46539 | -0.48470 | 88 ft | 12 kts | 181° |
| 2026-04-20 14:54 | 51.46477 | -0.48440 | 87 ft | 4 kts | 105° |
| 2026-04-20 14:54 | 51.46479 | -0.48419 | 89 ft | 0 kts | 87° |
| 2026-04-20 14:54 | 51.46480 | -0.48305 | 87 ft | 37 kts | 89° |
| 2026-04-20 14:55 | 51.46485 | -0.47538 | 84 ft | 98 kts | 90° |
| 2026-04-20 14:55 | 51.46489 | -0.46190 | 85 ft | 142 kts | 90° |
| 2026-04-20 14:55 | 51.46448 | -0.44543 | 488 ft | 147 kts | 91° |
| 2026-04-20 14:55 | 51.46387 | -0.42853 | 993 ft | 154 kts | 91° |
| 2026-04-20 14:56 | 51.46543 | -0.41197 | 1659 ft | 151 kts | 62° |
| 2026-04-20 14:56 | 51.47173 | -0.39854 | 2224 ft | 154 kts | 50° |
| 2026-04-20 14:56 | 51.47874 | -0.38514 | 2841 ft | 157 kts | 51° |
| 2026-04-20 14:56 | 51.48587 | -0.37156 | 3446 ft | 167 kts | 51° |
| 2026-04-20 14:57 | 51.49373 | -0.35650 | 3916 ft | 188 kts | 50° |
| 2026-04-20 14:57 | 51.50278 | -0.33920 | 4393 ft | 216 kts | 50° |
| 2026-04-20 14:57 | 51.51314 | -0.31944 | 5037 ft | 240 kts | 50° |
| 2026-04-20 14:57 | 51.52240 | -0.29618 | 5772 ft | 254 kts | 65° |
| 2026-04-20 14:58 | 51.52917 | -0.26956 | 6697 ft | 262 kts | 69° |
| 2026-04-20 14:58 | 51.53533 | -0.24195 | 7686 ft | 264 kts | 70° |
| 2026-04-20 14:58 | 51.54119 | -0.21381 | 8648 ft | 270 kts | 71° |
| 2026-04-20 14:58 | 51.54915 | -0.18646 | 9488 ft | 275 kts | 50° |
| 2026-04-20 14:59 | 51.56435 | -0.16783 | 10377 ft | 280 kts | 22° |
| 2026-04-20 14:59 | 51.58381 | -0.16189 | 10849 ft | 299 kts | 357° |
| 2026-04-20 14:59 | 51.60467 | -0.17014 | 11227 ft | 320 kts | 334° |
| 2026-04-20 14:59 | 51.62235 | -0.19240 | 11963 ft | 328 kts | 310° |
| 2026-04-20 15:00 | 51.63532 | -0.22292 | 12947 ft | 329 kts | 304° |
| 2026-04-20 15:00 | 51.64905 | -0.25246 | 13817 ft | 332 kts | 311° |
| 2026-04-20 15:00 | 51.66551 | -0.27839 | 14543 ft | 337 kts | 320° |
| 2026-04-20 15:00 | 51.68440 | -0.30134 | 15352 ft | 339 kts | 325° |
| 2026-04-20 15:01 | 51.70423 | -0.32200 | 16152 ft | 342 kts | 327° |
| 2026-04-20 15:01 | 51.72453 | -0.34174 | 16972 ft | 344 kts | 328° |
| 2026-04-20 15:01 | 51.74526 | -0.36148 | 17760 ft | 347 kts | 328° |
| 2026-04-20 15:01 | 51.76609 | -0.38133 | 18541 ft | 349 kts | 328° |
| 2026-04-20 15:02 | 51.78719 | -0.40156 | 19266 ft | 350 kts | 327° |
| 2026-04-20 15:02 | 51.80802 | -0.42163 | 20013 ft | 350 kts | 327° |
| 2026-04-20 15:02 | 51.82885 | -0.44176 | 20738 ft | 350 kts | 327° |
| 2026-04-20 15:02 | 51.84994 | -0.46219 | 21472 ft | 351 kts | 326° |
| 2026-04-20 15:03 | 51.87082 | -0.48244 | 22201 ft | 351 kts | 326° |
| 2026-04-20 15:03 | 51.89172 | -0.50275 | 22894 ft | 353 kts | 326° |
| 2026-04-20 15:03 | 51.91279 | -0.52326 | 23584 ft | 354 kts | 325° |
| 2026-04-20 15:03 | 51.93386 | -0.54380 | 24165 ft | 356 kts | 325° |
| 2026-04-20 15:04 | 51.95504 | -0.56448 | 24652 ft | 359 kts | 325° |
| 2026-04-20 15:04 | 51.97650 | -0.58545 | 25133 ft | 362 kts | 325° |
| 2026-04-20 15:04 | 51.99812 | -0.60660 | 25614 ft | 365 kts | 325° |
| 2026-04-20 15:04 | 52.02012 | -0.62813 | 26101 ft | 367 kts | 325° |
| 2026-04-20 15:05 | 52.04194 | -0.64953 | 26560 ft | 370 kts | 324° |
| 2026-04-20 15:05 | 52.06425 | -0.67141 | 27006 ft | 373 kts | 324° |
| 2026-04-20 15:05 | 52.08644 | -0.69322 | 27455 ft | 375 kts | 324° |
| 2026-04-20 15:05 | 52.10876 | -0.71517 | 27892 ft | 378 kts | 324° |
| 2026-04-20 15:06 | 52.13147 | -0.73753 | 28304 ft | 381 kts | 324° |
| 2026-04-20 15:06 | 52.15408 | -0.75984 | 28693 ft | 384 kts | 324° |
| 2026-04-20 15:06 | 52.17692 | -0.78241 | 29060 ft | 387 kts | 324° |
| 2026-04-20 15:06 | 52.20000 | -0.80523 | 29404 ft | 390 kts | 324° |
| 2026-04-20 15:07 | 52.22348 | -0.82847 | 29753 ft | 393 kts | 324° |
| 2026-04-20 15:07 | 52.24689 | -0.85168 | 30098 ft | 396 kts | 324° |
| 2026-04-20 15:07 | 52.27065 | -0.87526 | 30430 ft | 399 kts | 324° |
| 2026-04-20 15:07 | 52.29435 | -0.89880 | 30678 ft | 403 kts | 324° |
| 2026-04-20 15:08 | 52.31833 | -0.92265 | 30930 ft | 407 kts | 325° |
| 2026-04-20 15:08 | 52.34258 | -0.94681 | 31179 ft | 411 kts | 325° |
| 2026-04-20 15:08 | 52.36733 | -0.97150 | 31457 ft | 414 kts | 325° |
| 2026-04-20 15:08 | 52.39186 | -0.99599 | 31782 ft | 416 kts | 325° |
| 2026-04-20 15:09 | 52.41642 | -1.02055 | 32113 ft | 417 kts | 325° |
| 2026-04-20 15:09 | 52.44121 | -1.04537 | 32248 ft | 417 kts | 325° |
| 2026-04-20 15:09 | 52.46606 | -1.07028 | 32262 ft | 416 kts | 325° |
| 2026-04-20 15:10 | 52.51532 | -1.11977 | 32253 ft | 417 kts | 325° |
| 2026-04-20 15:10 | 52.56497 | -1.16988 | 32249 ft | 418 kts | 325° |
| 2026-04-20 15:11 | 52.61430 | -1.21971 | 32240 ft | 418 kts | 326° |
| 2026-04-20 15:11 | 52.66404 | -1.27006 | 32238 ft | 419 kts | 326° |
| 2026-04-20 15:12 | 52.71353 | -1.32032 | 32237 ft | 420 kts | 326° |
| 2026-04-20 15:12 | 52.76337 | -1.37109 | 32290 ft | 421 kts | 326° |
| 2026-04-20 15:13 | 52.81300 | -1.42179 | 32289 ft | 422 kts | 326° |
| 2026-04-20 15:13 | 52.86291 | -1.47292 | 32287 ft | 423 kts | 326° |
| 2026-04-20 15:14 | 52.91285 | -1.52422 | 32285 ft | 424 kts | 326° |
| 2026-04-20 15:14 | 52.96324 | -1.57612 | 32283 ft | 425 kts | 326° |
| 2026-04-20 15:15 | 53.01349 | -1.62801 | 32285 ft | 426 kts | 326° |
| 2026-04-20 15:15 | 53.06391 | -1.68023 | 32289 ft | 427 kts | 326° |
| 2026-04-20 15:16 | 53.11428 | -1.73258 | 32286 ft | 428 kts | 326° |
| 2026-04-20 15:16 | 53.16462 | -1.78507 | 32291 ft | 429 kts | 326° |
| 2026-04-20 15:17 | 53.21524 | -1.83799 | 32294 ft | 429 kts | 326° |
| 2026-04-20 15:17 | 53.26607 | -1.88994 | 32299 ft | 431 kts | 328° |
| 2026-04-20 15:18 | 53.31856 | -1.93879 | 32297 ft | 432 kts | 329° |
| 2026-04-20 15:18 | 53.37081 | -1.98774 | 32301 ft | 432 kts | 329° |
| 2026-04-20 15:19 | 53.42317 | -2.03747 | 32305 ft | 432 kts | 329° |
| 2026-04-20 15:19 | 53.47545 | -2.08740 | 32296 ft | 433 kts | 329° |
| 2026-04-20 15:20 | 53.52778 | -2.13752 | 32300 ft | 433 kts | 329° |
| 2026-04-20 15:20 | 53.57816 | -2.19164 | 32291 ft | 431 kts | 317° |
| 2026-04-20 15:21 | 53.61446 | -2.27088 | 32283 ft | 431 kts | 296° |
| 2026-04-20 15:21 | 53.63662 | -2.36475 | 32285 ft | 431 kts | 292° |
| 2026-04-20 15:22 | 53.65830 | -2.45917 | 32281 ft | 432 kts | 292° |
| 2026-04-20 15:22 | 53.67990 | -2.55381 | 32278 ft | 432 kts | 292° |
| 2026-04-20 15:23 | 53.70135 | -2.64841 | 32275 ft | 432 kts | 291° |
| 2026-04-20 15:23 | 53.72283 | -2.74361 | 32271 ft | 433 kts | 291° |
| 2026-04-20 15:24 | 53.74406 | -2.83810 | 32268 ft | 433 kts | 291° |
| 2026-04-20 15:24 | 53.76536 | -2.93331 | 32269 ft | 433 kts | 291° |
| 2026-04-20 15:25 | 53.78651 | -3.02830 | 32294 ft | 433 kts | 291° |
| 2026-04-20 15:25 | 53.80769 | -3.12389 | 32297 ft | 432 kts | 291° |
| 2026-04-20 15:26 | 53.82864 | -3.21883 | 32293 ft | 432 kts | 291° |
| 2026-04-20 15:26 | 53.84960 | -3.31424 | 32293 ft | 432 kts | 291° |
| 2026-04-20 15:27 | 53.87046 | -3.40962 | 32293 ft | 432 kts | 291° |
| 2026-04-20 15:27 | 53.89134 | -3.50554 | 32297 ft | 432 kts | 291° |
| 2026-04-20 15:28 | 53.91194 | -3.60060 | 32297 ft | 432 kts | 291° |
| 2026-04-20 15:28 | 53.93250 | -3.69601 | 31876 ft | 428 kts | 291° |
| 2026-04-20 15:28 | 53.94275 | -3.74374 | 31237 ft | 427 kts | 291° |
| 2026-04-20 15:29 | 53.95288 | -3.79097 | 30556 ft | 426 kts | 291° |
| 2026-04-20 15:29 | 53.96446 | -3.83661 | 29902 ft | 421 kts | 297° |
| 2026-04-20 15:29 | 53.97878 | -3.88015 | 29230 ft | 416 kts | 301° |
| 2026-04-20 15:29 | 53.99316 | -3.92238 | 28568 ft | 412 kts | 300° |
| 2026-04-20 15:30 | 54.00725 | -3.96417 | 27953 ft | 408 kts | 300° |
| 2026-04-20 15:30 | 54.02139 | -4.00621 | 27306 ft | 404 kts | 300° |
| 2026-04-20 15:30 | 54.03517 | -4.04724 | 26693 ft | 401 kts | 300° |
| 2026-04-20 15:30 | 54.04901 | -4.08848 | 26082 ft | 397 kts | 300° |
| 2026-04-20 15:31 | 54.06270 | -4.12861 | 25511 ft | 393 kts | 303° |
| 2026-04-20 15:31 | 54.07821 | -4.16656 | 24920 ft | 390 kts | 306° |
| 2026-04-20 15:31 | 54.09386 | -4.20404 | 24357 ft | 387 kts | 306° |
| 2026-04-20 15:31 | 54.10946 | -4.24169 | 23777 ft | 384 kts | 306° |
| 2026-04-20 15:32 | 54.12477 | -4.27874 | 23124 ft | 381 kts | 306° |
| 2026-04-20 15:32 | 54.13979 | -4.31512 | 22487 ft | 378 kts | 306° |
| 2026-04-20 15:32 | 54.15495 | -4.35192 | 21853 ft | 375 kts | 306° |
| 2026-04-20 15:32 | 54.16986 | -4.38810 | 21231 ft | 372 kts | 306° |
| 2026-04-20 15:33 | 54.18463 | -4.42397 | 20627 ft | 370 kts | 306° |
| 2026-04-20 15:33 | 54.19454 | -4.44804 | 20237 ft | 368 kts | 306° |
| 2026-04-20 15:33 | 54.21401 | -4.49542 | 19466 ft | 366 kts | 306° |
| 2026-04-20 15:33 | 54.22858 | -4.53094 | 18912 ft | 363 kts | 306° |
| 2026-04-20 15:34 | 54.23818 | -4.55437 | 18589 ft | 361 kts | 306° |
| 2026-04-20 15:34 | 54.25733 | -4.60123 | 17930 ft | 361 kts | 305° |
| 2026-04-20 15:34 | 54.26687 | -4.62462 | 17653 ft | 359 kts | 305° |
| 2026-04-20 15:34 | 54.28126 | -4.65999 | 17236 ft | 357 kts | 305° |
| 2026-04-20 15:35 | 54.29529 | -4.69450 | 16846 ft | 356 kts | 305° |
| 2026-04-20 15:35 | 54.30935 | -4.72915 | 16450 ft | 354 kts | 305° |
| 2026-04-20 15:35 | 54.32336 | -4.76369 | 16055 ft | 353 kts | 305° |
| 2026-04-20 15:35 | 54.33730 | -4.79815 | 15674 ft | 352 kts | 305° |
| 2026-04-20 15:36 | 54.35123 | -4.83260 | 15294 ft | 350 kts | 305° |
| 2026-04-20 15:36 | 54.36502 | -4.86675 | 14979 ft | 349 kts | 305° |
| 2026-04-20 15:36 | 54.37894 | -4.90127 | 14681 ft | 348 kts | 305° |
| 2026-04-20 15:36 | 54.39265 | -4.93534 | 14384 ft | 347 kts | 305° |
| 2026-04-20 15:37 | 54.40625 | -4.96935 | 14090 ft | 346 kts | 305° |
| 2026-04-20 15:37 | 54.41979 | -5.00335 | 13725 ft | 345 kts | 305° |
| 2026-04-20 15:37 | 54.43324 | -5.03725 | 13317 ft | 342 kts | 305° |
| 2026-04-20 15:37 | 54.44641 | -5.07107 | 12917 ft | 341 kts | 300° |
| 2026-04-20 15:38 | 54.45421 | -5.10927 | 12510 ft | 341 kts | 278° |
| 2026-04-20 15:38 | 54.45465 | -5.14994 | 12126 ft | 341 kts | 269° |
| 2026-04-20 15:38 | 54.45392 | -5.19074 | 11741 ft | 339 kts | 269° |
| 2026-04-20 15:38 | 54.45321 | -5.23109 | 11352 ft | 338 kts | 269° |
| 2026-04-20 15:39 | 54.45250 | -5.27103 | 10981 ft | 336 kts | 269° |
| 2026-04-20 15:39 | 54.45180 | -5.31097 | 10794 ft | 324 kts | 269° |
| 2026-04-20 15:39 | 54.45113 | -5.34860 | 10670 ft | 311 kts | 269° |
| 2026-04-20 15:39 | 54.45047 | -5.38520 | 10544 ft | 298 kts | 269° |
| 2026-04-20 15:40 | 54.44984 | -5.42014 | 10326 ft | 289 kts | 269° |
| 2026-04-20 15:40 | 54.44922 | -5.45455 | 9927 ft | 288 kts | 269° |
| 2026-04-20 15:40 | 54.44863 | -5.48866 | 9518 ft | 286 kts | 269° |
| 2026-04-20 15:40 | 54.44805 | -5.52293 | 9095 ft | 285 kts | 269° |
| 2026-04-20 15:41 | 54.44750 | -5.55660 | 8708 ft | 283 kts | 269° |
| 2026-04-20 15:41 | 54.44699 | -5.59054 | 8311 ft | 282 kts | 269° |
| 2026-04-20 15:41 | 54.44648 | -5.62402 | 7907 ft | 280 kts | 268° |
| 2026-04-20 15:41 | 54.44598 | -5.65724 | 7530 ft | 279 kts | 269° |
| 2026-04-20 15:42 | 54.44548 | -5.69071 | 7154 ft | 277 kts | 269° |
| 2026-04-20 15:42 | 54.44464 | -5.72364 | 6778 ft | 275 kts | 262° |
| 2026-04-20 15:42 | 54.44024 | -5.75543 | 6402 ft | 273 kts | 253° |
| 2026-04-20 15:42 | 54.43510 | -5.78583 | 6227 ft | 258 kts | 253° |
| 2026-04-20 15:43 | 54.43022 | -5.81449 | 6061 ft | 245 kts | 253° |
| 2026-04-20 15:43 | 54.42552 | -5.84207 | 5706 ft | 240 kts | 253° |
| 2026-04-20 15:43 | 54.42086 | -5.86951 | 5230 ft | 241 kts | 253° |
| 2026-04-20 15:43 | 54.41612 | -5.89747 | 4895 ft | 240 kts | 253° |
| 2026-04-20 15:44 | 54.41152 | -5.92468 | 4623 ft | 239 kts | 253° |
| 2026-04-20 15:44 | 54.40687 | -5.95220 | 4317 ft | 239 kts | 253° |
| 2026-04-20 15:44 | 54.40229 | -5.97942 | 4022 ft | 238 kts | 254° |
| 2026-04-20 15:44 | 54.40017 | -6.00761 | 3728 ft | 237 kts | 268° |
| 2026-04-20 15:45 | 54.40029 | -6.03520 | 3545 ft | 226 kts | 281° |
| 2026-04-20 15:45 | 54.40678 | -6.05906 | 3188 ft | 219 kts | 314° |
| 2026-04-20 15:45 | 54.41830 | -6.07466 | 2883 ft | 208 kts | 342° |
| 2026-04-20 15:45 | 54.43221 | -6.08012 | 2804 ft | 207 kts | 3° |
| 2026-04-20 15:46 | 54.44598 | -6.07509 | 2808 ft | 203 kts | 26° |
| 2026-04-20 15:46 | 54.45821 | -6.06342 | 2796 ft | 201 kts | 36° |
| 2026-04-20 15:46 | 54.46959 | -6.04981 | 2796 ft | 194 kts | 37° |
| 2026-04-20 15:46 | 54.48011 | -6.03730 | 2793 ft | 175 kts | 37° |
| 2026-04-20 15:47 | 54.48995 | -6.02555 | 2805 ft | 177 kts | 38° |
| 2026-04-20 15:47 | 54.50027 | -6.01328 | 2765 ft | 180 kts | 37° |
| 2026-04-20 15:47 | 54.51052 | -6.00104 | 2548 ft | 181 kts | 37° |
| 2026-04-20 15:47 | 54.52071 | -5.98890 | 2283 ft | 177 kts | 37° |
| 2026-04-20 15:48 | 54.53077 | -5.97692 | 2046 ft | 175 kts | 37° |
| 2026-04-20 15:48 | 54.54086 | -5.96487 | 1797 ft | 177 kts | 37° |
| 2026-04-20 15:48 | 54.55069 | -5.95316 | 1554 ft | 167 kts | 37° |
| 2026-04-20 15:48 | 54.55977 | -5.94234 | 1344 ft | 149 kts | 37° |
| 2026-04-20 15:49 | 54.56774 | -5.93281 | 1124 ft | 133 kts | 38° |
| 2026-04-20 15:49 | 54.57497 | -5.92417 | 936 ft | 118 kts | 37° |
| 2026-04-20 15:49 | 54.58158 | -5.91622 | 788 ft | 120 kts | 37° |
| 2026-04-20 15:49 | 54.58848 | -5.90800 | 621 ft | 119 kts | 37° |
| 2026-04-20 15:50 | 54.59536 | -5.89975 | 450 ft | 120 kts | 36° |
| 2026-04-20 15:50 | 54.60220 | -5.89161 | 294 ft | 117 kts | 36° |
| 2026-04-20 15:50 | 54.60889 | -5.88341 | 108 ft | 119 kts | 36° |
| 2026-04-20 15:50 | 54.61555 | -5.87554 | 23 ft | 107 kts | 34° |
| 2026-04-20 15:51 | 54.61956 | -5.87079 | 20 ft | 53 kts | 35° |
| 2026-04-20 15:51 | 54.62192 | -5.86795 | 22 ft | 36 kts | 34° |
| 2026-04-20 15:51 | 54.62353 | -5.86602 | 25 ft | 14 kts | 34° |
| 2026-04-20 15:51 | 54.62408 | -5.86501 | 23 ft | 11 kts | 74° |
| 2026-04-20 15:52 | 54.62453 | -5.86448 | 23 ft | 5 kts | 319° |
| 2026-04-20 15:52 | 54.62437 | -5.86501 | 22 ft | 8 kts | 220° |
| 2026-04-20 15:52 | 54.62377 | -5.86577 | 23 ft | 13 kts | 214° |
| 2026-04-20 15:53 | 54.62172 | -5.86819 | 21 ft | 22 kts | 214° |
| 2026-04-20 15:53 | 54.62037 | -5.86979 | 21 ft | 25 kts | 215° |
| 2026-04-20 15:53 | 54.61923 | -5.87115 | 21 ft | 10 kts | 214° |
| 2026-04-20 15:53 | 54.61860 | -5.87179 | 22 ft | 11 kts | 193° |
| 2026-04-20 15:54 | 54.61802 | -5.87097 | 21 ft | 13 kts | 124° |
| 2026-04-20 15:54 | 54.61746 | -5.86993 | 21 ft | 10 kts | 163° |
| 2026-04-20 15:54 | 54.61686 | -5.87042 | 21 ft | 10 kts | 214° |
| 2026-04-20 15:54 | 54.61634 | -5.87104 | 21 ft | 9 kts | 215° |
| 2026-04-20 15:55 | 54.61586 | -5.87160 | 22 ft | 8 kts | 214° |
| 2026-04-20 15:55 | 54.61537 | -5.87219 | 21 ft | 8 kts | 214° |
| 2026-04-20 15:55 | 54.61499 | -5.87217 | 21 ft | 4 kts | 162° |
| 2026-04-20 15:55 | 54.61478 | -5.87200 | 21 ft | 1 kts | 155° |
| 2026-04-20 15:56 | 54.61473 | -5.87197 | 24 ft | 2 kts | 155° |
| 2026-04-20 15:56 | 54.61471 | -5.87195 | 23 ft | 0 kts | 155° |